createdAt,value
2023-05-10T00:03:14.337Z,9
2023-05-10T00:07:58.456Z,9
2023-05-10T00:12:42.678Z,9
2023-05-10T00:17:26.786Z,9
2023-05-10T00:22:11.006Z,9
2023-05-10T00:26:55.119Z,9
2023-05-10T00:31:39.342Z,9
2023-05-10T00:36:23.457Z,9
2023-05-10T00:41:07.664Z,9
2023-05-10T00:45:51.878Z,9
2023-05-10T00:55:20.217Z,9
2023-05-10T01:00:04.326Z,9
2023-05-10T01:09:32.664Z,9
2023-05-10T01:14:16.884Z,9
2023-05-10T01:19:01.193Z,9
2023-05-10T01:23:45.420Z,9
2023-05-10T01:28:29.523Z,9
2023-05-10T01:33:13.937Z,4
2023-05-10T01:37:58.058Z,9
2023-05-10T01:42:42.270Z,9
2023-05-10T01:47:26.614Z,9
2023-05-10T01:52:10.702Z,9
2023-05-10T01:56:54.916Z,9
2023-05-10T02:01:39.132Z,9
2023-05-10T02:06:23.254Z,9
2023-05-10T02:11:07.464Z,9
2023-05-10T02:15:51.578Z,9
2023-05-10T02:20:35.789Z,9
2023-05-10T02:25:19.922Z,9
2023-05-10T02:30:04.127Z,9
2023-05-10T02:34:48.239Z,9
2023-05-10T02:39:32.455Z,9
2023-05-10T02:44:16.670Z,9
2023-05-10T02:49:00.813Z,9
2023-05-10T02:53:45.028Z,9
2023-05-10T02:58:29.117Z,9
2023-05-10T03:03:13.436Z,9
2023-05-10T03:07:58.150Z,12
2023-05-10T03:12:42.470Z,15
2023-05-10T03:17:26.687Z,20
2023-05-10T03:22:10.795Z,27
2023-05-10T03:26:55.017Z,24
2023-05-10T03:31:39.147Z,42
2023-05-10T03:36:23.336Z,81
2023-05-10T03:41:07.462Z,196
2023-05-10T03:45:51.172Z,165
2023-05-10T03:50:34.385Z,250
2023-05-10T03:55:17.207Z,145
2023-05-10T04:00:00.537Z,108
2023-05-10T04:04:43.729Z,588
2023-05-10T04:09:27.052Z,605
2023-05-10T04:14:10.392Z,588
2023-05-10T04:23:36.881Z,336
2023-05-10T04:28:20.090Z,950
2023-05-10T04:33:03.400Z,1860
2023-05-10T04:42:29.938Z,1241
2023-05-10T04:47:13.144Z,1118
2023-05-10T04:51:56.459Z,1846
2023-05-10T04:56:39.673Z,1907
2023-05-10T05:01:22.700Z,1309
2023-05-10T05:06:05.504Z,3482
2023-05-10T05:10:47.948Z,3127
2023-05-10T05:15:29.926Z,3322
2023-05-10T05:20:12.653Z,4124
2023-05-10T05:24:55.349Z,5078
2023-05-10T05:29:38.063Z,7681
2023-05-10T05:34:20.780Z,8999
2023-05-10T05:39:03.592Z,7567
2023-05-10T05:43:46.499Z,4600
2023-05-10T05:48:29.120Z,7550
2023-05-10T05:53:11.746Z,11880
2023-05-10T05:57:54.522Z,14773
2023-05-10T06:12:02.703Z,19254
2023-05-10T06:16:45.447Z,19678
2023-05-10T06:21:28.182Z,20095
2023-05-10T06:30:53.630Z,19138
2023-05-10T06:35:36.354Z,18156
2023-05-10T07:03:52.789Z,19076
2023-05-10T07:08:35.608Z,18001
2023-05-10T07:22:43.693Z,26450
2023-05-10T07:27:26.457Z,31604
2023-05-10T07:32:08.416Z,37671
2023-05-10T07:36:50.502Z,36016
2023-05-10T07:41:33.140Z,34643
2023-05-10T07:46:15.917Z,32003
2023-05-10T07:50:58.654Z,29348
2023-05-10T08:00:24.075Z,15155
2023-05-10T08:05:06.815Z,30405
2023-05-10T08:09:49.498Z,30092
2023-05-10T08:23:57.860Z,23058
2023-05-10T08:33:23.378Z,16400
2023-05-10T08:42:48.808Z,28466
2023-05-10T08:52:14.161Z,31551
2023-05-10T08:56:56.835Z,28837
2023-05-10T09:01:39.540Z,43179
2023-05-10T09:06:22.334Z,49859
2023-05-10T09:15:47.841Z,51339
2023-05-10T09:29:55.922Z,40714
2023-05-10T09:34:38.664Z,40099
2023-05-10T09:44:04.166Z,17506
2023-05-10T09:53:29.599Z,33986
2023-05-10T09:58:12.358Z,37374
2023-05-10T10:02:55.120Z,43327
2023-05-10T10:07:37.892Z,43369
2023-05-10T10:12:20.550Z,44101
2023-05-10T10:17:03.261Z,47134
2023-05-10T10:21:45.969Z,32706
2023-05-10T10:26:28.681Z,33465
2023-05-10T10:31:12.011Z,41488
2023-05-10T10:45:21.966Z,40126
2023-05-10T10:50:05.179Z,27793
2023-05-10T11:04:15.042Z,40222
2023-05-10T11:08:58.188Z,49247
2023-05-10T11:18:24.657Z,28797
2023-05-10T11:23:07.479Z,16566
2023-05-10T11:27:50.775Z,9247
2023-05-10T11:42:00.508Z,40795
2023-05-10T11:46:43.824Z,44578
2023-05-10T11:51:27.059Z,46648
2023-05-10T11:56:10.366Z,57571
2023-05-10T12:00:53.563Z,50246
2023-05-10T12:10:20.186Z,10378
2023-05-10T12:15:03.409Z,65037
2023-05-10T12:19:46.713Z,58953
2023-05-10T12:29:13.231Z,43933
2023-05-10T12:33:56.454Z,58432
2023-05-10T12:38:39.787Z,48800
2023-05-10T12:43:22.671Z,54373
2023-05-10T12:48:05.912Z,63895
2023-05-10T12:52:49.332Z,54021
2023-05-10T13:02:15.816Z,33815
2023-05-10T13:06:58.947Z,35252
2023-05-10T13:11:42.337Z,31441
2023-05-10T13:16:25.614Z,34820
2023-05-10T13:21:08.910Z,31101
2023-05-10T13:30:35.323Z,30994
2023-05-10T13:35:18.540Z,30374
2023-05-10T13:40:01.900Z,37945
2023-05-10T13:44:45.067Z,38132
2023-05-10T13:49:28.376Z,42941
2023-05-10T13:54:11.589Z,53765
2023-05-10T13:58:55.001Z,64686
2023-05-10T14:03:38.192Z,21462
2023-05-10T14:13:04.734Z,1508
2023-05-10T14:17:48.055Z,50705
2023-05-10T14:22:31.205Z,40419
2023-05-10T14:31:57.762Z,33690
2023-05-10T14:36:41.094Z,32426
2023-05-10T14:41:24.344Z,28832
2023-05-10T14:46:07.570Z,26838
2023-05-10T14:50:50.863Z,27134
2023-05-10T15:00:17.486Z,24607
2023-05-10T15:09:43.978Z,22711
2023-05-10T15:14:27.230Z,22014
2023-05-10T15:19:10.514Z,20360
2023-05-10T15:23:53.765Z,13370
2023-05-10T15:33:20.351Z,15561
2023-05-10T15:42:48.574Z,7805
2023-05-10T15:47:32.739Z,6933
2023-05-10T15:57:01.149Z,9390
2023-05-10T16:06:29.415Z,11293
2023-05-10T16:11:13.701Z,11332
2023-05-10T16:15:57.723Z,5453
2023-05-10T16:20:42.008Z,4019
2023-05-10T16:30:10.284Z,3224
2023-05-10T16:34:54.521Z,3619
2023-05-10T16:39:38.806Z,3152
2023-05-10T16:44:23.030Z,4882
2023-05-10T16:49:07.151Z,5133
2023-05-10T16:53:51.259Z,4577
2023-05-10T16:58:35.493Z,4033
2023-05-10T17:03:19.607Z,3161
2023-05-10T17:08:03.823Z,2331
2023-05-10T17:12:48.079Z,2195
2023-05-10T17:17:32.124Z,2276
2023-05-10T17:22:16.443Z,2053
2023-05-10T17:31:44.675Z,1384
2023-05-10T17:36:37.693Z,1210
2023-05-10T17:41:13.438Z,1184
2023-05-10T17:55:25.913Z,742
2023-05-10T18:00:10.074Z,664
2023-05-10T18:09:38.410Z,496
2023-05-10T18:14:22.605Z,466
2023-05-10T18:19:06.250Z,426
2023-05-10T18:23:49.668Z,369
2023-05-10T18:28:32.761Z,297
2023-05-10T18:37:59.277Z,144
2023-05-10T18:42:42.551Z,101
2023-05-10T18:47:25.897Z,69
2023-05-10T18:56:52.449Z,30
2023-05-10T19:01:35.569Z,18
2023-05-10T19:11:02.081Z,12
2023-05-10T19:15:45.692Z,9
2023-05-10T19:20:29.230Z,9
2023-05-10T19:25:11.545Z,9
2023-05-10T19:29:54.727Z,9
2023-05-10T19:34:38.133Z,9
2023-05-10T19:39:21.277Z,9
2023-05-10T19:44:04.576Z,9
2023-05-10T19:48:48.615Z,9
2023-05-10T19:53:31.109Z,9
2023-05-10T19:58:14.349Z,9
2023-05-10T20:02:57.627Z,9
2023-05-10T20:07:40.845Z,9
2023-05-10T20:12:24.209Z,9
2023-05-10T20:17:07.410Z,9
2023-05-10T20:21:50.871Z,9
2023-05-10T20:26:33.104Z,9
2023-05-10T20:31:15.808Z,9
2023-05-10T20:35:58.567Z,9
2023-05-10T20:40:41.256Z,9
2023-05-10T20:45:23.244Z,9
2023-05-10T20:50:05.955Z,9
2023-05-10T20:54:48.782Z,9
2023-05-10T20:59:31.485Z,9
2023-05-10T21:04:14.198Z,9
2023-05-10T21:08:56.919Z,9
2023-05-10T21:13:39.821Z,9
2023-05-10T21:18:22.469Z,9
2023-05-10T21:23:05.106Z,9
2023-05-10T21:27:47.897Z,9
2023-05-10T21:32:30.613Z,9
2023-05-10T21:37:13.301Z,9
2023-05-10T21:41:56.009Z,9
2023-05-10T21:46:38.758Z,9
2023-05-10T21:51:21.549Z,9
2023-05-10T21:56:03.537Z,9
2023-05-10T22:00:46.284Z,9
2023-05-10T22:05:28.965Z,9
2023-05-10T22:14:54.491Z,9
2023-05-10T22:19:36.501Z,9
2023-05-10T22:24:19.217Z,9
2023-05-10T22:29:01.958Z,9
2023-05-10T22:33:44.634Z,9
2023-05-10T22:38:27.355Z,9
2023-05-10T22:43:10.172Z,9
2023-05-10T22:47:52.875Z,9
2023-05-10T22:52:35.589Z,9
2023-05-10T22:57:18.328Z,9
2023-05-10T23:02:01.033Z,9
2023-05-10T23:06:43.732Z,9
2023-05-10T23:11:26.541Z,9
2023-05-10T23:16:09.257Z,9
2023-05-10T23:25:34.024Z,9
2023-05-10T23:30:16.693Z,9
2023-05-10T23:34:59.398Z,9
2023-05-10T23:39:42.126Z,9
2023-05-10T23:44:24.935Z,9
2023-05-10T23:53:50.359Z,9
